Time;durP1;ratioP1;P1;durP2;ratioP2;P2;SDS_P1;SDS_P2;PMS_P1;PMS_P2;Temp;Humidity;BMP_temperature;BMP_pressure;BME280_temperature;BME280_humidity;BME280_pressure;Samples;Min_cycle;Max_cycle;Signal;HPM_P1;HPM_P2
2023/01/07 00:01:45;;;;;;;13.00;4.18;;;;;;;4.43;100.00;101431.97;5014766;28;20577;-42
2023/01/07 00:04:13;;;;;;;8.48;3.70;;;;;;;4.43;100.00;101438.16;5003524;28;20222;-41
2023/01/07 00:06:40;;;;;;;10.88;4.15;;;;;;;4.47;100.00;101442.56;5001195;28;20181;-42
2023/01/07 00:09:09;;;;;;;10.13;4.05;;;;;;;4.44;100.00;101431.97;5000849;28;20196;-42
2023/01/07 00:11:39;;;;;;;11.07;3.83;;;;;;;4.47;100.00;101428.41;5000064;28;20618;-42
2023/01/07 00:14:07;;;;;;;14.20;3.72;;;;;;;4.38;100.00;101429.31;4997547;28;20239;-42
2023/01/07 00:16:34;;;;;;;8.73;3.83;;;;;;;4.43;100.00;101416.91;4999490;28;20630;-42
2023/01/07 00:19:01;;;;;;;12.15;4.68;;;;;;;4.43;100.00;101424.88;4998387;28;20224;-42
2023/01/07 00:21:28;;;;;;;13.95;4.60;;;;;;;4.45;100.00;101417.78;4997745;28;20207;-43
2023/01/07 00:23:58;;;;;;;13.82;4.05;;;;;;;4.49;100.00;101419.56;5004019;28;20304;-42
2023/01/07 00:26:26;;;;;;;7.38;4.05;;;;;;;4.56;100.00;101411.56;5000790;28;20189;-41
2023/01/07 00:28:52;;;;;;;8.23;4.30;;;;;;;4.57;100.00;101418.63;4999880;28;20596;-42
2023/01/07 00:31:21;;;;;;;13.88;4.28;;;;;;;4.53;100.00;101416.00;5001221;28;20245;-42
2023/01/07 00:36:20;;;;;;;12.48;4.45;;;;;;;4.60;100.00;101410.69;4997171;28;20177;-43
2023/01/07 00:38:47;;;;;;;12.18;4.75;;;;;;;4.57;100.00;101411.56;5002267;28;20213;-42
2023/01/07 00:41:13;;;;;;;13.07;4.97;;;;;;;4.58;100.00;101410.69;4999267;28;20894;-43
2023/01/07 00:43:38;;;;;;;11.18;4.40;;;;;;;4.60;100.00;101411.56;5000275;28;20209;-42
2023/01/07 00:46:04;;;;;;;8.60;4.43;;;;;;;4.64;100.00;101428.34;5006749;28;20240;-42
2023/01/07 00:48:31;;;;;;;10.85;4.93;;;;;;;4.64;100.00;101418.63;4999163;28;20235;-41
2023/01/07 00:50:56;;;;;;;14.23;4.53;;;;;;;4.62;100.00;101419.50;5000543;28;20188;-42
2023/01/07 00:53:23;;;;;;;9.93;4.95;;;;;;;4.63;100.00;101411.53;5005965;28;20540;-44
2023/01/07 00:55:50;;;;;;;14.43;4.95;;;;;;;4.60;100.00;101413.34;4998148;28;20184;-42
2023/01/07 00:58:20;;;;;;;11.27;4.68;;;;;;;4.64;100.00;101415.97;4999873;28;20599;-42
2023/01/07 01:00:47;;;;;;;12.70;5.03;;;;;;;4.63;100.00;101405.34;4992713;28;20566;-42
2023/01/07 01:03:12;;;;;;;9.63;4.85;;;;;;;4.60;100.00;101408.03;4995014;28;20228;-43
2023/01/07 01:05:39;;;;;;;10.93;5.03;;;;;;;4.60;100.00;101400.06;4996579;28;20213;-43
2023/01/07 01:08:05;;;;;;;13.30;4.63;;;;;;;4.61;100.00;101408.00;4998015;28;20516;-43
2023/01/07 01:10:31;;;;;;;10.77;4.88;;;;;;;4.64;100.00;101402.69;5008578;28;20274;-44
2023/01/07 01:12:57;;;;;;;11.70;5.35;;;;;;;4.63;100.00;101402.69;5007915;28;20209;-43
2023/01/07 01:15:23;;;;;;;15.73;5.47;;;;;;;4.65;100.00;101400.91;5000362;28;20220;-42
2023/01/07 01:17:50;;;;;;;9.68;5.70;;;;;;;4.64;100.00;101399.16;5000906;28;20188;-41
2023/01/07 01:20:16;;;;;;;14.88;5.63;;;;;;;4.64;100.00;101396.50;4999808;28;20178;-41
2023/01/07 01:22:42;;;;;;;13.85;5.80;;;;;;;4.61;100.00;101397.38;4996536;28;20222;-43
2023/01/07 01:25:08;;;;;;;10.00;5.30;;;;;;;4.64;100.00;101396.50;4999536;28;20220;-44
2023/01/07 01:27:34;;;;;;;14.98;6.32;;;;;;;4.67;100.00;101391.19;4999149;28;20190;-43
2023/01/07 01:30:01;;;;;;;15.48;6.22;;;;;;;4.66;100.00;101382.34;5001152;28;20196;-42
2023/01/07 01:32:28;;;;;;;13.82;6.88;;;;;;;4.68;100.00;101382.31;5013723;28;20554;-43
2023/01/07 01:34:53;;;;;;;12.65;6.72;;;;;;;4.71;100.00;101382.31;4994808;28;20208;-41
2023/01/07 01:37:19;;;;;;;15.52;8.00;;;;;;;4.72;100.00;101381.41;4998618;28;20187;-42
2023/01/07 01:39:45;;;;;;;14.82;7.93;;;;;;;4.75;100.00;101371.66;5007230;28;20183;-42
2023/01/07 01:42:16;;;;;;;16.33;7.63;;;;;;;4.74;100.00;101377.88;5010562;28;20204;-43
2023/01/07 01:44:53;;;;;;;22.85;8.02;;;;;;;4.75;100.00;101389.38;4999232;28;20236;-41
2023/01/07 01:48:02;;;;;;;16.90;8.57;;;;;;;4.76;100.00;101380.50;4994888;28;20185;-42
2023/01/07 01:50:44;;;;;;;11.82;7.82;;;;;;;4.72;100.00;101376.09;4997656;28;20276;-42
2023/01/07 01:53:26;;;;;;;18.70;8.75;;;;;;;4.77;100.00;101386.69;5012333;28;20182;-44
2023/01/07 01:56:07;;;;;;;18.63;8.45;;;;;;;4.72;100.00;101382.31;4999777;28;20234;-41
2023/01/07 01:58:42;;;;;;;16.55;8.95;;;;;;;4.73;100.00;101377.88;4999453;28;20299;-42
2023/01/07 02:01:08;;;;;;;15.05;8.32;;;;;;;4.71;100.00;101387.63;5000476;28;20204;-41
2023/01/07 02:03:36;;;;;;;16.70;9.35;;;;;;;4.74;100.00;101366.34;5016364;28;20733;-42
2023/01/07 02:06:02;;;;;;;24.35;9.95;;;;;;;4.69;100.00;101370.81;5012891;28;20586;-41
2023/01/07 02:08:28;;;;;;;21.83;9.38;;;;;;;4.68;100.00;101369.94;4997173;28;20541;-43
2023/01/07 02:11:23;;;;;;;18.23;10.68;;;;;;;4.69;100.00;101368.16;4995262;28;20263;-42
2023/01/07 02:14:04;;;;;;;18.70;10.25;;;;;;;4.73;100.00;101369.91;4983688;28;20217;-42
2023/01/07 02:16:40;;;;;;;17.67;9.90;;;;;;;4.72;100.00;101370.78;4998008;28;20582;-42
2023/01/07 02:19:11;;;;;;;17.48;10.25;;;;;;;4.75;100.00;101354.88;4993305;28;20203;-42
2023/01/07 02:22:07;;;;;;;27.55;11.20;;;;;;;4.74;100.00;101361.03;5004135;28;20201;-41
2023/01/07 02:24:52;;;;;;;18.60;10.85;;;;;;;4.76;100.00;101356.59;5012865;28;20292;-43
2023/01/07 02:27:30;;;;;;;20.73;11.48;;;;;;;4.78;100.00;101360.13;5001128;28;20206;-40
2023/01/07 02:30:44;;;;;;;18.50;11.07;;;;;;;4.78;100.00;101357.47;5005989;28;20192;-43
2023/01/07 02:33:32;;;;;;;20.95;11.20;;;;;;;4.77;100.00;101354.84;4979437;28;20185;-45
2023/01/07 02:35:57;;;;;;;24.55;12.02;;;;;;;4.77;100.00;101347.78;4996360;28;20312;-42
2023/01/07 02:38:35;;;;;;;20.23;12.18;;;;;;;4.81;100.00;101348.63;5001867;28;21037;-41
2023/01/07 02:41:16;;;;;;;23.55;11.23;;;;;;;4.78;100.00;101346.88;5001806;28;20361;-42
2023/01/07 02:44:27;;;;;;;19.50;11.60;;;;;;;4.76;100.00;101343.34;4998975;28;20571;-42
2023/01/07 02:47:23;;;;;;;25.05;12.52;;;;;;;4.78;100.00;101338.03;4986606;28;20443;-44
2023/01/07 02:49:48;;;;;;;20.05;12.38;;;;;;;4.82;100.00;101323.84;5010500;28;20299;-42
2023/01/07 02:52:25;;;;;;;24.60;12.55;;;;;;;4.89;100.00;101328.22;4998303;28;20561;-42
2023/01/07 02:55:02;;;;;;;18.02;12.43;;;;;;;4.93;100.00;101329.97;5003500;28;20327;-41
2023/01/07 02:57:43;;;;;;;22.33;13.27;;;;;;;4.94;100.00;101322.00;5001738;28;20188;-40
2023/01/07 03:00:36;;;;;;;24.10;14.02;;;;;;;4.94;100.00;101324.66;4998573;28;20173;-41
2023/01/07 03:06:01;;;;;;;22.77;13.98;;;;;;;4.98;100.00;101317.53;4997956;28;20228;-45
2023/01/07 03:08:52;;;;;;;22.60;13.75;;;;;;;4.98;100.00;101314.00;4998950;28;20217;-46
2023/01/07 03:11:22;;;;;;;23.02;14.10;;;;;;;4.99;100.00;101305.16;4998618;28;20567;-45
2023/01/07 03:13:59;;;;;;;24.00;14.25;;;;;;;4.96;100.00;101316.66;5003002;28;20574;-46
2023/01/07 03:16:34;;;;;;;23.20;13.73;;;;;;;4.96;100.00;101303.38;5008973;28;20188;-45
2023/01/07 03:19:10;;;;;;;24.48;15.00;;;;;;;4.98;100.00;101314.00;5004532;28;20177;-42
2023/01/07 03:21:37;;;;;;;25.48;13.75;;;;;;;4.99;100.00;101308.69;4997264;28;20200;-43
2023/01/07 03:24:05;;;;;;;23.75;15.02;;;;;;;4.99;100.00;101294.53;5010980;28;20262;-45
2023/01/07 03:26:34;;;;;;;22.50;14.63;;;;;;;4.99;100.00;101303.38;5006790;28;20193;-43
2023/01/07 03:29:01;;;;;;;31.55;15.45;;;;;;;4.98;100.00;101303.38;5007461;28;20236;-43
2023/01/07 03:31:29;;;;;;;24.05;15.00;;;;;;;4.98;100.00;101290.09;5011133;28;20172;-43
2023/01/07 03:34:06;;;;;;;25.27;14.63;;;;;;;4.98;100.00;101290.09;5020129;28;20625;-45
2023/01/07 03:36:37;;;;;;;29.80;14.77;;;;;;;4.98;100.00;101284.78;5001438;28;20169;-43
2023/01/07 03:39:05;;;;;;;23.48;15.52;;;;;;;5.00;100.00;101283.88;5004890;28;20236;-40
2023/01/07 03:44:16;;;;;;;26.50;16.17;;;;;;;5.03;100.00;101290.94;5002685;28;20221;-41
2023/01/07 03:46:43;;;;;;;26.50;16.20;;;;;;;5.05;100.00;101279.44;5007558;28;20200;-46
2023/01/07 03:49:08;;;;;;;28.02;17.65;;;;;;;5.05;100.00;101289.16;5006878;28;20183;-43
2023/01/07 03:51:35;;;;;;;24.23;15.93;;;;;;;5.04;100.00;101275.00;5007120;28;20741;-41
2023/01/07 03:54:00;;;;;;;27.15;15.50;;;;;;;5.02;100.00;101271.47;5008621;28;20292;-44
2023/01/07 03:56:26;;;;;;;29.02;16.15;;;;;;;5.03;100.00;101267.94;5003129;28;20189;-43
2023/01/07 03:58:51;;;;;;;28.63;15.77;;;;;;;5.03;100.00;101267.94;5008785;28;20176;-42
2023/01/07 04:01:17;;;;;;;29.35;17.92;;;;;;;5.01;100.00;101259.09;5008748;28;20585;-42
2023/01/07 04:03:43;;;;;;;25.38;17.38;;;;;;;5.06;100.00;101262.59;5005294;28;20221;-42
2023/01/07 04:06:09;;;;;;;32.58;17.25;;;;;;;5.04;100.00;101259.06;5013390;28;20655;-43
2023/01/07 04:08:36;;;;;;;29.63;17.33;;;;;;;5.09;100.00;101256.38;5007411;28;20200;-43
2023/01/07 04:11:02;;;;;;;32.55;18.63;;;;;;;5.10;100.00;101256.34;5006993;28;20193;-45
2023/01/07 04:13:28;;;;;;;33.28;19.58;;;;;;;5.11;100.00;101250.13;5004834;28;20300;-43
2023/01/07 04:15:54;;;;;;;32.78;19.35;;;;;;;5.15;100.00;101240.38;4998853;28;20185;-42
2023/01/07 04:18:19;;;;;;;34.95;19.50;;;;;;;5.23;100.00;101264.22;4998817;28;20186;-44
2023/01/07 04:20:46;;;;;;;35.80;20.40;;;;;;;5.29;100.00;101249.09;5006687;28;20243;-46
2023/01/07 04:23:13;;;;;;;43.05;22.38;;;;;;;5.39;100.00;101241.03;5007508;28;20235;-43
2023/01/07 04:25:46;;;;;;;40.08;23.23;;;;;;;5.48;100.00;101238.28;4997675;28;20181;-48
2023/01/07 04:28:12;;;;;;;40.78;24.35;;;;;;;5.57;100.00;101251.47;4998882;28;20185;-45
2023/01/07 04:30:38;;;;;;;45.15;26.25;;;;;;;5.61;100.00;101239.91;5005354;28;20177;-44
2023/01/07 04:33:05;;;;;;;46.03;25.75;;;;;;;5.67;100.00;101246.94;5008364;28;20195;-44
2023/01/07 04:35:31;;;;;;;49.53;26.48;;;;;;;5.71;100.00;101238.91;5004750;28;20240;-46
2023/01/07 04:37:57;;;;;;;44.10;26.35;;;;;;;5.72;100.00;101237.13;5001741;28;20193;-43
2023/01/07 04:40:23;;;;;;;49.88;27.55;;;;;;;5.77;100.00;101237.94;4989285;28;20193;-42
2023/01/07 04:42:49;;;;;;;51.33;27.70;;;;;;;5.82;100.00;101249.44;5005192;28;20259;-44
2023/01/07 04:45:14;;;;;;;51.40;29.35;;;;;;;5.83;100.00;101248.50;4999871;28;20297;-44
2023/01/07 04:47:40;;;;;;;50.75;29.58;;;;;;;5.91;100.00;101238.66;5008589;28;20287;-45
2023/01/07 04:50:06;;;;;;;51.45;30.38;;;;;;;6.00;100.00;101242.16;5006451;28;20215;-46
2023/01/07 04:52:33;;;;;;;51.92;30.58;;;;;;;5.98;100.00;101236.84;5002929;28;20173;-44
2023/01/07 04:55:00;;;;;;;53.38;29.67;;;;;;;6.00;100.00;101237.69;5009980;28;20209;-43
2023/01/07 04:57:26;;;;;;;54.13;30.80;;;;;;;6.05;100.00;101221.69;5007942;28;20292;-47
2023/01/07 04:59:52;;;;;;;59.50;32.38;;;;;;;6.08;100.00;101219.88;4986214;28;20180;-47
2023/01/07 05:02:18;;;;;;;60.45;32.65;;;;;;;6.10;100.00;101228.72;5003264;28;20213;-44
2023/01/07 05:04:43;;;;;;;58.53;31.67;;;;;;;6.15;100.00;101232.19;5007254;28;20749;-45
2023/01/07 05:07:10;;;;;;;63.10;35.08;;;;;;;6.22;100.00;101232.09;5005054;28;20182;-43
2023/01/07 05:09:35;;;;;;;64.50;33.88;;;;;;;6.20;100.00;101218.81;4999315;28;20184;-45
2023/01/07 05:12:01;;;;;;;62.97;33.30;;;;;;;6.22;100.00;101226.78;5008003;28;20596;-47
2023/01/07 05:14:27;;;;;;;64.68;33.88;;;;;;;6.22;100.00;101218.81;4989145;28;20525;-43
2023/01/07 05:16:55;;;;;;;57.92;33.25;;;;;;;6.25;100.00;101224.94;5008750;28;20294;-45
2023/01/07 05:19:23;;;;;;;67.22;34.50;;;;;;;6.26;100.00;101224.06;5000988;28;20192;-44
2023/01/07 05:21:50;;;;;;;66.40;36.55;;;;;;;6.28;100.00;101222.25;5002034;28;20629;-46
2023/01/07 05:24:16;;;;;;;64.40;34.97;;;;;;;6.34;100.00;101215.94;5007111;28;20571;-43
2023/01/07 05:26:42;;;;;;;64.10;35.53;;;;;;;6.36;100.00;101219.47;5008260;28;20173;-43
2023/01/07 05:29:08;;;;;;;70.40;37.80;;;;;;;6.38;100.00;101212.34;5004115;28;20592;-45
2023/01/07 05:31:34;;;;;;;65.53;34.47;;;;;;;6.41;100.00;101220.31;5000805;28;20177;-42
2023/01/07 05:33:59;;;;;;;64.38;34.22;;;;;;;6.42;100.00;101210.53;5003233;28;20213;-48
2023/01/07 05:36:25;;;;;;;62.03;34.05;;;;;;;6.42;100.00;101218.50;5004894;28;20247;-43
2023/01/07 05:38:52;;;;;;;67.82;35.55;;;;;;;6.43;100.00;101210.50;5007261;28;20284;-45
2023/01/07 05:41:17;;;;;;;61.25;33.13;;;;;;;6.45;100.00;101215.78;4995396;28;20284;-43
2023/01/07 05:43:43;;;;;;;62.15;34.58;;;;;;;6.49;100.00;101226.38;5017672;28;20228;-44
2023/01/07 05:46:09;;;;;;;61.22;32.80;;;;;;;6.52;100.00;101220.16;5005819;28;20298;-43
2023/01/07 05:48:34;;;;;;;61.30;33.42;;;;;;;6.56;100.00;101224.53;5003108;28;20215;-43
2023/01/07 05:51:00;;;;;;;64.30;34.42;;;;;;;6.58;100.00;101220.03;4994305;28;20239;-43
2023/01/07 05:53:25;;;;;;;66.00;37.00;;;;;;;6.60;100.00;101219.13;5001082;28;20201;-44
2023/01/07 05:55:58;;;;;;;65.22;35.13;;;;;;;6.64;100.00;101217.28;5001682;28;20177;-47
2023/01/07 05:58:24;;;;;;;66.57;36.00;;;;;;;6.70;100.00;101218.97;4999492;28;20319;-45
2023/01/07 06:00:50;;;;;;;64.72;34.83;;;;;;;6.72;100.00;101217.16;4998807;28;20189;-45
2023/01/07 06:03:16;;;;;;;66.15;33.72;;;;;;;6.76;100.00;101208.22;4995226;28;20228;-45
2023/01/07 06:05:41;;;;;;;67.45;33.65;;;;;;;6.77;100.00;101209.97;5000105;28;20551;-46
2023/01/07 06:08:07;;;;;;;58.08;31.50;;;;;;;6.78;100.00;101217.94;5006139;28;20181;-46
2023/01/07 06:10:32;;;;;;;61.78;30.90;;;;;;;6.79;100.00;101208.16;4997887;28;20185;-45
2023/01/07 06:12:58;;;;;;;56.78;31.20;;;;;;;6.78;100.00;101211.75;4997433;28;20188;-46
2023/01/07 06:15:23;;;;;;;57.47;30.85;;;;;;;6.82;100.00;101208.09;5006408;28;20239;-44
2023/01/07 06:17:49;;;;;;;60.25;30.48;;;;;;;6.83;100.00;101209.00;4999861;28;20191;-47
2023/01/07 06:20:14;;;;;;;55.10;28.50;;;;;;;6.85;100.00;101218.72;4999843;28;20193;-44
2023/01/07 06:22:43;;;;;;;50.78;27.73;;;;;;;6.84;100.00;101208.09;5000640;28;20212;-43
2023/01/07 06:25:10;;;;;;;50.25;26.25;;;;;;;6.87;100.00;101211.59;5005616;28;20282;-44
2023/01/07 06:27:36;;;;;;;53.10;27.92;;;;;;;6.85;100.00;101223.19;4998317;28;20217;-45
2023/01/07 06:30:03;;;;;;;52.45;26.13;;;;;;;6.90;100.00;101222.16;4997452;28;20813;-49
2023/01/07 06:32:29;;;;;;;52.85;27.08;;;;;;;6.92;100.00;101217.69;4997792;28;20315;-44
2023/01/07 06:34:54;;;;;;;51.03;25.85;;;;;;;6.95;100.00;101217.66;4997574;28;20295;-45
2023/01/07 06:37:20;;;;;;;53.80;27.52;;;;;;;6.96;100.00;101218.53;4997624;28;20188;-47
2023/01/07 06:39:45;;;;;;;47.70;26.58;;;;;;;7.00;100.00;101218.47;5005342;28;20305;-47
2023/01/07 06:42:11;;;;;;;51.78;27.63;;;;;;;6.99;100.00;101214.03;4998536;28;20220;-44
2023/01/07 06:44:37;;;;;;;50.00;26.73;;;;;;;7.03;100.00;101212.19;5001479;28;20215;-46
2023/01/07 06:47:02;;;;;;;49.92;27.08;;;;;;;7.03;100.00;101217.53;4997314;28;20201;-48
2023/01/07 06:49:28;;;;;;;57.45;29.42;;;;;;;7.06;100.00;101214.78;4998580;28;20178;-48
2023/01/07 06:51:53;;;;;;;60.85;31.20;;;;;;;7.14;100.00;101223.53;4995262;28;20177;-47
2023/01/07 06:54:18;;;;;;;58.22;29.73;;;;;;;7.14;100.00;101212.88;4998277;28;20674;-46
2023/01/07 06:56:44;;;;;;;63.85;31.20;;;;;;;7.16;100.00;101207.53;5002020;28;20184;-42
2023/01/07 06:59:10;;;;;;;66.68;32.95;;;;;;;7.20;100.00;101218.09;5000623;28;20193;-44
2023/01/07 07:01:35;;;;;;;69.03;34.25;;;;;;;7.25;100.00;101218.00;4993953;28;20626;-48
2023/01/07 07:04:01;;;;;;;70.40;34.50;;;;;;;7.29;100.00;101219.72;5002118;28;20303;-47
2023/01/07 07:06:26;;;;;;;74.13;36.70;;;;;;;7.34;100.00;101225.84;5005185;28;20177;-43
2023/01/07 07:08:52;;;;;;;73.32;37.28;;;;;;;7.38;100.00;101219.53;5003895;28;20267;-43
2023/01/07 07:11:17;;;;;;;75.82;38.85;;;;;;;7.48;100.00;101214.94;5006068;28;20636;-49
2023/01/07 07:13:43;;;;;;;83.22;40.65;;;;;;;7.53;100.00;101225.50;5004200;28;20574;-44
2023/01/07 07:16:08;;;;;;;77.10;37.70;;;;;;;7.56;100.00;101222.75;5000722;28;20251;-44
2023/01/07 07:18:34;;;;;;;81.80;40.55;;;;;;;7.56;100.00;101225.44;5009355;28;20269;-46
2023/01/07 07:20:59;;;;;;;84.63;38.90;;;;;;;7.59;100.00;101226.25;4999421;28;20659;-49
2023/01/07 07:23:25;;;;;;;84.82;41.30;;;;;;;7.63;100.00;101221.72;5006339;28;20239;-42
2023/01/07 07:25:50;;;;;;;85.90;40.80;;;;;;;7.63;100.00;101230.63;4998428;28;20282;-44
2023/01/07 07:28:16;;;;;;;84.63;41.05;;;;;;;7.66;100.00;101224.34;4997431;28;20196;-48
2023/01/07 07:30:42;;;;;;;84.43;41.85;;;;;;;7.70;100.00;101222.53;5000390;28;20234;-42
2023/01/07 07:33:07;;;;;;;88.07;42.50;;;;;;;7.72;100.00;101223.34;5000389;28;20184;-45
2023/01/07 07:35:33;;;;;;;87.00;42.05;;;;;;;7.74;100.00;101225.09;5002256;28;20192;-44
2023/01/07 07:37:59;;;;;;;78.88;40.80;;;;;;;7.76;100.00;101222.38;4999684;28;20547;-47
2023/01/07 07:40:24;;;;;;;83.00;40.22;;;;;;;7.74;100.00;101230.41;5008851;28;20691;-46
2023/01/07 07:42:50;;;;;;;84.43;41.92;;;;;;;7.82;100.00;101228.44;5007473;28;20718;-43
2023/01/07 07:45:18;;;;;;;86.20;43.00;;;;;;;7.83;100.00;101238.22;5005811;28;20568;-46
2023/01/07 07:47:44;;;;;;;79.13;40.72;;;;;;;7.87;100.00;101228.38;4995512;28;20668;-44
2023/01/07 07:50:11;;;;;;;85.85;41.20;;;;;;;7.85;100.00;101230.22;5011013;28;20199;-46
2023/01/07 07:52:36;;;;;;;79.72;39.63;;;;;;;7.83;100.00;101232.91;5001710;28;20713;-45
2023/01/07 07:55:02;;;;;;;82.65;40.13;;;;;;;7.86;100.00;101233.75;5003126;28;20188;-44
2023/01/07 07:57:27;;;;;;;79.90;39.47;;;;;;;7.88;100.00;101229.25;5009051;28;20254;-44
2023/01/07 07:59:53;;;;;;;87.78;42.58;;;;;;;7.93;100.00;101238.03;5007640;28;20192;-50
2023/01/07 08:02:18;;;;;;;83.88;40.17;;;;;;;7.90;100.00;101227.44;5007925;28;20216;-45
2023/01/07 08:04:44;;;;;;;82.75;40.00;;;;;;;7.93;100.00;101225.56;5000436;28;20259;-44
2023/01/07 08:07:11;;;;;;;77.82;40.17;;;;;;;7.98;100.00;101233.47;5006252;28;20595;-46
2023/01/07 08:09:37;;;;;;;80.45;40.08;;;;;;;7.97;100.00;101229.06;5006395;28;20216;-45
2023/01/07 08:12:03;;;;;;;82.35;40.03;;;;;;;8.01;100.00;101236.97;5004773;28;20204;-47
2023/01/07 08:14:29;;;;;;;79.78;40.80;;;;;;;8.03;100.00;101236.94;5006543;28;20652;-45
2023/01/07 08:16:54;;;;;;;82.10;41.03;;;;;;;8.04;100.00;101223.53;4996569;28;20310;-46
2023/01/07 08:19:20;;;;;;;70.45;38.35;;;;;;;8.06;100.00;101226.19;4999717;28;20619;-50
2023/01/07 08:21:47;;;;;;;78.55;40.65;;;;;;;8.08;100.00;101228.84;5005587;28;20353;-45
2023/01/07 08:24:13;;;;;;;82.95;42.03;;;;;;;8.12;100.00;101227.84;5002967;28;20263;-45
2023/01/07 08:26:39;;;;;;;74.30;39.78;;;;;;;8.13;100.00;101218.94;5000855;28;20616;-45
2023/01/07 08:29:05;;;;;;;80.05;40.03;;;;;;;8.13;100.00;101214.47;5009952;28;20238;-48
2023/01/07 08:31:30;;;;;;;78.35;39.40;;;;;;;8.14;100.00;101224.25;4998365;28;20694;-47
2023/01/07 08:33:56;;;;;;;78.05;39.97;;;;;;;8.14;100.00;101221.56;5003913;28;20486;-42
2023/01/07 08:36:21;;;;;;;77.22;40.58;;;;;;;8.17;100.00;101224.16;5008124;28;20204;-46
2023/01/07 08:38:53;;;;;;;79.53;40.33;;;;;;;8.17;100.00;101226.81;5002736;28;20185;-47
2023/01/07 08:41:21;;;;;;;74.72;40.33;;;;;;;8.21;100.00;101227.66;5005533;28;20288;-46
2023/01/07 08:43:46;;;;;;;75.57;40.35;;;;;;;8.21;100.00;101228.53;4997572;28;20227;-44
2023/01/07 08:46:12;;;;;;;72.93;38.95;;;;;;;8.21;100.00;101222.31;4998289;28;20173;-44
2023/01/07 08:48:40;;;;;;;71.32;38.03;;;;;;;8.25;100.00;101221.34;4998717;28;20251;-41
2023/01/07 08:51:06;;;;;;;80.57;40.50;;;;;;;8.24;100.00;101225.81;4999706;28;20200;-43
2023/01/07 08:53:32;;;;;;;74.22;38.78;;;;;;;8.28;100.00;101231.94;5004616;28;20638;-42
2023/01/07 08:55:58;;;;;;;65.43;35.97;;;;;;;8.32;100.00;101214.06;4999306;28;20225;-43
2023/01/07 08:58:24;;;;;;;73.90;40.20;;;;;;;8.27;100.00;101224.84;4999728;28;20243;-42
2023/01/07 09:00:51;;;;;;;70.60;38.47;;;;;;;8.30;100.00;101223.91;5001276;28;20243;-42
2023/01/07 09:03:16;;;;;;;68.55;38.97;;;;;;;8.32;100.00;101222.94;4998050;28;20635;-41
2023/01/07 09:05:42;;;;;;;67.93;38.28;;;;;;;8.33;100.00;101226.50;5004207;28;20188;-43
2023/01/07 09:08:08;;;;;;;71.10;37.92;;;;;;;8.34;100.00;101234.47;4998324;28;20177;-42
2023/01/07 09:10:33;;;;;;;70.90;39.20;;;;;;;8.37;100.00;101223.72;5003665;28;20628;-42
2023/01/07 09:12:59;;;;;;;64.55;39.15;;;;;;;8.41;100.00;101229.91;4997099;28;20184;-44
2023/01/07 09:15:24;;;;;;;67.30;38.17;;;;;;;8.44;100.00;101225.38;4999822;28;20766;-43
2023/01/07 09:17:50;;;;;;;67.57;38.03;;;;;;;8.45;100.00;101226.25;5001342;28;20257;-40
2023/01/07 09:20:16;;;;;;;62.22;37.80;;;;;;;8.48;100.00;101227.97;5005556;28;20178;-42
2023/01/07 09:22:41;;;;;;;63.38;37.50;;;;;;;8.50;100.00;101218.13;5007667;28;20201;-45
2023/01/07 09:25:07;;;;;;;64.63;38.90;;;;;;;8.50;100.00;101223.47;5007555;28;20262;-42
2023/01/07 09:27:33;;;;;;;64.22;39.97;;;;;;;8.48;100.00;101220.81;4998672;28;20197;-42
2023/01/07 09:29:58;;;;;;;61.35;38.65;;;;;;;8.51;100.00;101226.13;5003093;28;20604;-41
2023/01/07 09:32:25;;;;;;;60.08;37.33;;;;;;;8.54;100.00;101219.81;4995142;28;20179;-44
2023/01/07 09:34:50;;;;;;;59.20;37.70;;;;;;;8.55;100.00;101222.47;5004902;28;20213;-43
2023/01/07 09:37:16;;;;;;;64.65;39.50;;;;;;;8.50;100.00;101224.34;5002159;28;20499;-42
2023/01/07 09:39:41;;;;;;;64.28;39.20;;;;;;;8.52;100.00;101214.50;5000061;28;20648;-43
2023/01/07 09:42:41;;;;;;;62.03;38.33;;;;;;;8.51;100.00;101217.25;5000505;28;20247;-41
2023/01/07 09:45:18;;;;;;;59.08;36.60;;;;;;;8.52;100.00;101211.84;4998903;28;20618;-43
2023/01/07 09:47:49;;;;;;;61.67;38.90;;;;;;;8.54;100.00;101214.47;5002740;28;20176;-43
2023/01/07 09:50:18;;;;;;;59.17;38.55;;;;;;;8.56;100.00;101220.66;5003503;28;20185;-45
2023/01/07 09:52:49;;;;;;;61.97;38.90;;;;;;;8.53;100.00;101224.28;4996465;28;20185;-46
2023/01/07 09:55:27;;;;;;;58.60;39.65;;;;;;;8.55;100.00;101222.47;4999990;28;20531;-44
2023/01/07 09:57:54;;;;;;;59.78;38.22;;;;;;;8.58;100.00;101222.38;4998720;28;20188;-46
2023/01/07 10:00:24;;;;;;;62.30;39.38;;;;;;;8.55;100.00;101216.22;4999087;28;20212;-48
2023/01/07 10:03:14;;;;;;;60.00;39.58;;;;;;;8.58;100.00;101213.50;4997150;28;20217;-44
2023/01/07 10:05:43;;;;;;;60.55;38.45;;;;;;;8.57;100.00;101201.94;4998792;28;20197;-43
2023/01/07 10:08:17;;;;;;;57.03;38.42;;;;;;;8.60;100.00;101199.19;4998926;28;20192;-47
2023/01/07 10:10:58;;;;;;;55.78;39.15;;;;;;;8.63;100.00;101196.44;4997891;28;20218;-46
2023/01/07 10:13:23;;;;;;;56.50;38.63;;;;;;;8.64;100.00;101208.88;4998877;28;20228;-46
2023/01/07 10:16:15;;;;;;;56.58;39.22;;;;;;;8.65;100.00;101209.75;4994398;28;20221;-42
2023/01/07 10:18:48;;;;;;;53.28;37.97;;;;;;;8.68;100.00;101195.44;4997959;28;20200;-44
2023/01/07 10:21:24;;;;;;;52.55;38.25;;;;;;;8.69;100.00;101202.56;5006501;28;20268;-46
2023/01/07 10:24:02;;;;;;;52.47;39.35;;;;;;;8.70;100.00;101199.81;5003571;28;20721;-44
2023/01/07 10:26:59;;;;;;;54.78;39.25;;;;;;;8.70;100.00;101190.94;4995330;28;20188;-46
2023/01/07 10:29:56;;;;;;;52.85;37.70;;;;;;;8.71;100.00;101187.38;5001870;28;20193;-44
2023/01/07 10:32:27;;;;;;;51.70;37.90;;;;;;;8.74;100.00;101181.94;4998965;28;20276;-44
2023/01/07 10:34:57;;;;;;;58.10;39.65;;;;;;;8.77;100.00;101180.09;5006106;28;20208;-44
2023/01/07 10:37:32;;;;;;;55.38;40.13;;;;;;;8.74;100.00;101169.44;5001592;28;20189;-47
2023/01/07 10:40:07;;;;;;;57.20;41.92;;;;;;;8.77;100.00;101179.22;4997315;28;20184;-45
2023/01/07 10:42:32;;;;;;;56.25;40.78;;;;;;;8.74;100.00;101174.78;4997923;28;20253;-45
2023/01/07 10:45:14;;;;;;;57.03;41.10;;;;;;;8.75;100.00;101176.56;4998536;28;20252;-44
2023/01/07 10:48:16;;;;;;;53.75;40.95;;;;;;;8.76;100.00;101159.59;4999873;28;20271;-45
2023/01/07 10:50:47;;;;;;;59.00;41.00;;;;;;;8.77;100.00;101168.53;5002328;28;20537;-44
2023/01/07 10:53:41;;;;;;;50.47;40.65;;;;;;;8.84;100.00;101148.75;5001598;28;20640;-44
2023/01/07 10:56:16;;;;;;;53.25;41.45;;;;;;;8.85;100.00;101150.47;4998771;28;20185;-46
2023/01/07 10:58:45;;;;;;;53.30;40.33;;;;;;;8.86;100.00;101157.59;5004218;28;20176;-45
2023/01/07 11:01:38;;;;;;;53.03;40.47;;;;;;;8.90;100.00;101148.59;5004103;28;20177;-47
2023/01/07 11:04:07;;;;;;;48.90;39.85;;;;;;;8.89;100.00;101144.13;4996336;28;20236;-45
2023/01/07 11:06:43;;;;;;;45.42;37.03;;;;;;;8.95;100.00;101135.09;5004254;28;20196;-45
2023/01/07 11:09:18;;;;;;;49.05;40.15;;;;;;;8.89;100.00;101141.47;5008852;28;20287;-45
2023/01/07 11:11:46;;;;;;;51.92;41.17;;;;;;;8.90;100.00;101140.56;5002017;28;20189;-45
2023/01/07 11:14:18;;;;;;;47.53;40.17;;;;;;;8.88;100.00;101131.72;5001811;28;20205;-44
2023/01/07 11:16:53;;;;;;;48.35;39.65;;;;;;;8.89;100.00;101136.13;4994412;28;20184;-47
2023/01/07 11:19:20;;;;;;;48.80;39.50;;;;;;;8.91;100.00;101139.63;5003099;28;20188;-45
2023/01/07 11:21:51;;;;;;;45.58;38.35;;;;;;;8.92;100.00;101132.50;5003293;28;20223;-44
2023/01/07 11:24:34;;;;;;;46.35;39.17;;;;;;;8.91;100.00;101128.06;5002670;28;20270;-43
2023/01/07 11:27:13;;;;;;;45.20;38.65;;;;;;;8.90;100.00;101134.31;5001690;28;20185;-45
2023/01/07 11:29:45;;;;;;;43.63;37.65;;;;;;;8.88;100.00;101126.38;5001044;28;20188;-46
2023/01/07 11:32:20;;;;;;;43.15;37.63;;;;;;;8.87;100.00;101117.44;5001122;28;20185;-46